Pagrindinis puslapis
METAR-TAF:

METAR-TAF

Oro uostai :

Kristiansandas, Norvegija

platuma: 58-12N, ilguma: 008-05E, Aukštis: 1 m

Dabartinis oras

Ataskaita buvo paskelbta 24 minutes, ne 01:50 UTC
Vėjas 9 kt iš Šiaurės Rytų
Temperatūra 4°C
Drėgmė 81%
Slėgis 1006 hPa
Matomumas 10 km arba daugiau

METAR: ENCN 190150Z AUTO 04009KT 9999 SCT028/// SCT037/// OVC045/// 04/01 Q1006

Laikas: 04:14 (02:14 UTC)

Prognozė

Ataskaita buvo paskelbta 12 valandos ir 14 minutes, ne 14:00 UTC
Prognozė galioja nuo 18 metu 15 UTC su 18 metu 22 UTC
Vėjas 8 kt iš Pietų/Pietryčių
Matomumas 10 km arba daugiau
Mažai debesys ne aukštis 4000 ft
Išsisklaidę debesys ne aukštis 7000 ft
Laikinai
nuo 18 metu 20 UTC su 18 metu 22 UTC
Mažai debesys ne aukštis 3000 ft, aukštai iškilę kamuoliniai debesys.
Su prošvaistėmis ne aukštis 5000 ft

TAF: ENCN 181400Z 1815/1822 16008KT 9999 FEW040 SCT070 TEMPO 1820/1822 FEW030TCU BKN050

Orai ataskaitas ir orų prognozės (METAR, TAF).

turimą stotys yra geltonos ir raudonos taškus žemėlapyje.

Perkelti pele per norėdami pamatyti stoties vardą.

Tada spustelėkite, norėdami matyti oro stebėjimo ir prognozės.

Norėdami pakeisti žemėlapį: spustelėkite ant žalios mygtukų su juodo kryžiaus žemyn,; žalią mygtuką su brūkšneliu, jei norite nutolinti; arba žalių rodyklių gretimoms žemėlapius.


METAR-TAF: